AIZ321 LLBG-UBBB
Flight info
| Callsign | AIZ321 |
|---|---|
| Flight time | N/A |
| Altitude | 33997 |
| Route | DAFNA W13 VELOX N71 DESPO DCT VOLBE DCT VESAR UL620 EVKIT UT284 SIV UW706 TBN UN61 NOLGA N61 LAGAS M747 SUBUT T923 ERLEV |
| Aircraft | A320/M-SDE3FGHIRWY/LB1 |
Departure
| Time | 2026-05-05 14:28 |
|---|---|
| Airport | Ben Gurion International Airport (LLBG) |
Arrival
| Time | N/A |
|---|---|
| Airport | Heydar Aliyev International Airport (UBBB) |
| Time | Latitude | Longitude | Altitude | Speed | Heading |
|---|---|---|---|---|---|
| 2026-05-05 14:28 | 32.03224 | 34.52798 | 10544 ft | 310 kts | 274° |
| 2026-05-05 14:28 | 32.03430 | 34.50242 | 11069 ft | 316 kts | 283° |
| 2026-05-05 14:29 | 32.04315 | 34.47874 | 11697 ft | 320 kts | 304° |
| 2026-05-05 14:29 | 32.05956 | 34.46084 | 12351 ft | 328 kts | 327° |
| 2026-05-05 14:29 | 32.08109 | 34.45123 | 13019 ft | 335 kts | 340° |
| 2026-05-05 14:29 | 32.10327 | 34.44258 | 13829 ft | 336 kts | 335° |
| 2026-05-05 14:30 | 32.12494 | 34.43218 | 14599 ft | 337 kts | 333° |
| 2026-05-05 14:30 | 32.14652 | 34.42107 | 15357 ft | 340 kts | 332° |
| 2026-05-05 14:30 | 32.16833 | 34.40977 | 16114 ft | 343 kts | 332° |
| 2026-05-05 14:30 | 32.19042 | 34.39855 | 16861 ft | 347 kts | 333° |
| 2026-05-05 14:31 | 32.21283 | 34.38750 | 17598 ft | 351 kts | 333° |
| 2026-05-05 14:31 | 32.23563 | 34.37651 | 18321 ft | 356 kts | 333° |
| 2026-05-05 14:31 | 32.25870 | 34.36553 | 18945 ft | 359 kts | 333° |
| 2026-05-05 14:31 | 32.28203 | 34.35447 | 19556 ft | 363 kts | 333° |
| 2026-05-05 14:32 | 32.30559 | 34.34330 | 20156 ft | 367 kts | 333° |
| 2026-05-05 14:32 | 32.32938 | 34.33203 | 20735 ft | 370 kts | 333° |
| 2026-05-05 14:32 | 32.35207 | 34.32127 | 21283 ft | 374 kts | 333° |
| 2026-05-05 14:32 | 32.37629 | 34.30976 | 21848 ft | 377 kts | 333° |
| 2026-05-05 14:33 | 32.40064 | 34.29818 | 22359 ft | 380 kts | 333° |
| 2026-05-05 14:33 | 32.42532 | 34.28644 | 22857 ft | 383 kts | 333° |
| 2026-05-05 14:33 | 32.45016 | 34.27456 | 23326 ft | 386 kts | 333° |
| 2026-05-05 14:33 | 32.47519 | 34.26257 | 23748 ft | 389 kts | 333° |
| 2026-05-05 14:34 | 32.50038 | 34.25050 | 24111 ft | 392 kts | 333° |
| 2026-05-05 14:34 | 32.52580 | 34.23841 | 24471 ft | 395 kts | 334° |
| 2026-05-05 14:34 | 32.55247 | 34.22952 | 24812 ft | 403 kts | 344° |
| 2026-05-05 14:34 | 32.58060 | 34.22559 | 25149 ft | 409 kts | 348° |
| 2026-05-05 14:35 | 32.60906 | 34.22248 | 25496 ft | 411 kts | 348° |
| 2026-05-05 14:35 | 32.63722 | 34.21936 | 25817 ft | 412 kts | 348° |
| 2026-05-05 14:35 | 32.66582 | 34.21615 | 26129 ft | 414 kts | 348° |
| 2026-05-05 14:35 | 32.69458 | 34.21289 | 26432 ft | 416 kts | 348° |
| 2026-05-05 14:36 | 32.72346 | 34.20958 | 26737 ft | 417 kts | 348° |
| 2026-05-05 14:36 | 32.75241 | 34.20624 | 27024 ft | 419 kts | 348° |
| 2026-05-05 14:36 | 32.78149 | 34.20288 | 27309 ft | 421 kts | 348° |
| 2026-05-05 14:36 | 32.81082 | 34.19951 | 27590 ft | 423 kts | 348° |
| 2026-05-05 14:37 | 32.84019 | 34.19614 | 27893 ft | 424 kts | 348° |
| 2026-05-05 14:37 | 32.86956 | 34.19277 | 28222 ft | 424 kts | 348° |
| 2026-05-05 14:37 | 32.89897 | 34.18943 | 28513 ft | 426 kts | 348° |
| 2026-05-05 14:37 | 32.92851 | 34.18607 | 28781 ft | 427 kts | 348° |
| 2026-05-05 14:38 | 32.95777 | 34.18273 | 29029 ft | 429 kts | 348° |
| 2026-05-05 14:38 | 32.98756 | 34.17933 | 29276 ft | 430 kts | 348° |
| 2026-05-05 14:38 | 33.01747 | 34.17589 | 29523 ft | 432 kts | 348° |
| 2026-05-05 14:38 | 33.04740 | 34.17245 | 29755 ft | 434 kts | 348° |
| 2026-05-05 14:39 | 33.07749 | 34.16898 | 30012 ft | 434 kts | 348° |
| 2026-05-05 14:39 | 33.10753 | 34.16551 | 30262 ft | 434 kts | 348° |
| 2026-05-05 14:39 | 33.13763 | 34.16204 | 30553 ft | 433 kts | 348° |
| 2026-05-05 14:39 | 33.16741 | 34.15862 | 30818 ft | 432 kts | 348° |
| 2026-05-05 14:40 | 33.19740 | 34.15519 | 31101 ft | 431 kts | 348° |
| 2026-05-05 14:40 | 33.22721 | 34.15178 | 31366 ft | 430 kts | 348° |
| 2026-05-05 14:40 | 33.25705 | 34.14834 | 31628 ft | 430 kts | 347° |
| 2026-05-05 14:40 | 33.28679 | 34.14493 | 31888 ft | 429 kts | 347° |
| 2026-05-05 14:41 | 33.31645 | 34.14152 | 32158 ft | 428 kts | 347° |
| 2026-05-05 14:41 | 33.34609 | 34.13809 | 32410 ft | 428 kts | 347° |
| 2026-05-05 14:41 | 33.37570 | 34.13463 | 32682 ft | 427 kts | 347° |
| 2026-05-05 14:41 | 33.40526 | 34.13118 | 32938 ft | 426 kts | 347° |
| 2026-05-05 14:42 | 33.43474 | 34.12775 | 33207 ft | 426 kts | 347° |
| 2026-05-05 14:42 | 33.46421 | 34.12437 | 33466 ft | 425 kts | 347° |
| 2026-05-05 14:42 | 33.49363 | 34.12097 | 33712 ft | 424 kts | 346° |
| 2026-05-05 14:42 | 33.52300 | 34.11756 | 33965 ft | 424 kts | 347° |
| 2026-05-05 14:43 | 33.58223 | 34.11065 | 34015 ft | 432 kts | 347° |
| 2026-05-05 14:43 | 33.64265 | 34.10356 | 34012 ft | 440 kts | 347° |
| 2026-05-05 14:44 | 33.70341 | 34.09659 | 34008 ft | 436 kts | 347° |
| 2026-05-05 14:44 | 33.76355 | 34.08966 | 34022 ft | 433 kts | 347° |
| 2026-05-05 14:45 | 33.82443 | 34.09126 | 34007 ft | 448 kts | 4° |
| 2026-05-05 14:45 | 33.88452 | 34.11493 | 34000 ft | 458 kts | 14° |
| 2026-05-05 14:46 | 33.94382 | 34.14300 | 33993 ft | 458 kts | 14° |
| 2026-05-05 14:46 | 34.00314 | 34.17099 | 34030 ft | 457 kts | 14° |
| 2026-05-05 14:47 | 34.06230 | 34.19879 | 34020 ft | 456 kts | 14° |
| 2026-05-05 14:47 | 34.12146 | 34.22669 | 34009 ft | 456 kts | 14° |
| 2026-05-05 14:48 | 34.18053 | 34.25462 | 34021 ft | 456 kts | 14° |
| 2026-05-05 14:48 | 34.23964 | 34.28256 | 34016 ft | 456 kts | 14° |
| 2026-05-05 14:49 | 34.29821 | 34.31032 | 34010 ft | 455 kts | 14° |
| 2026-05-05 14:49 | 34.35724 | 34.33823 | 34038 ft | 455 kts | 14° |
| 2026-05-05 14:50 | 34.41638 | 34.36446 | 34025 ft | 447 kts | 6° |
| 2026-05-05 14:50 | 34.47655 | 34.37208 | 34016 ft | 429 kts | 349° |
| 2026-05-05 14:51 | 34.53403 | 34.36084 | 34027 ft | 421 kts | 342° |
| 2026-05-05 14:51 | 34.59135 | 34.34682 | 34021 ft | 420 kts | 342° |
| 2026-05-05 14:52 | 34.64860 | 34.33274 | 34014 ft | 419 kts | 342° |
| 2026-05-05 14:52 | 34.70447 | 34.31905 | 34004 ft | 419 kts | 342° |
| 2026-05-05 14:53 | 34.76163 | 34.30503 | 34026 ft | 418 kts | 342° |
| 2026-05-05 14:53 | 34.81867 | 34.29093 | 34015 ft | 418 kts | 342° |
| 2026-05-05 14:54 | 34.87555 | 34.27694 | 34004 ft | 417 kts | 342° |
| 2026-05-05 14:54 | 34.93238 | 34.26284 | 33999 ft | 416 kts | 342° |
| 2026-05-05 14:55 | 34.98909 | 34.24871 | 34023 ft | 416 kts | 342° |
| 2026-05-05 14:55 | 35.03621 | 34.23703 | 34016 ft | 415 kts | 342° |
| 2026-05-05 14:56 | 35.09277 | 34.22305 | 34009 ft | 414 kts | 342° |
| 2026-05-05 14:56 | 35.14923 | 34.20901 | 33982 ft | 414 kts | 342° |
| 2026-05-05 14:57 | 35.20578 | 34.19489 | 33980 ft | 415 kts | 342° |
| 2026-05-05 14:57 | 35.26235 | 34.18077 | 34004 ft | 415 kts | 343° |
| 2026-05-05 14:58 | 35.31884 | 34.16662 | 33994 ft | 414 kts | 343° |
| 2026-05-05 14:58 | 35.37530 | 34.15248 | 33991 ft | 414 kts | 343° |
| 2026-05-05 14:59 | 35.43170 | 34.13836 | 33989 ft | 413 kts | 343° |
| 2026-05-05 14:59 | 35.48806 | 34.12417 | 33987 ft | 413 kts | 343° |
| 2026-05-05 15:00 | 35.53487 | 34.11238 | 33980 ft | 413 kts | 343° |
| 2026-05-05 15:00 | 35.60072 | 34.09580 | 33978 ft | 413 kts | 343° |
| 2026-05-05 15:01 | 35.65664 | 34.08173 | 33975 ft | 413 kts | 343° |
| 2026-05-05 15:01 | 35.71304 | 34.06749 | 34011 ft | 413 kts | 343° |
| 2026-05-05 15:02 | 35.76936 | 34.05325 | 34000 ft | 413 kts | 343° |
| 2026-05-05 15:02 | 35.82564 | 34.03904 | 33992 ft | 412 kts | 343° |
| 2026-05-05 15:03 | 35.88186 | 34.02472 | 33972 ft | 412 kts | 343° |
| 2026-05-05 15:03 | 35.93504 | 34.00144 | 34004 ft | 402 kts | 327° |
| 2026-05-05 15:04 | 35.98256 | 33.96571 | 33997 ft | 399 kts | 326° |
| 2026-05-05 15:04 | 36.02981 | 33.92997 | 33984 ft | 398 kts | 326° |
| 2026-05-05 15:05 | 36.10039 | 33.87661 | 33982 ft | 395 kts | 326° |
| 2026-05-05 15:06 | 36.14723 | 33.84110 | 33975 ft | 394 kts | 326° |
| 2026-05-05 15:06 | 36.19401 | 33.80559 | 33968 ft | 395 kts | 326° |
| 2026-05-05 15:06 | 36.21869 | 33.79053 | 33955 ft | 399 kts | 338° |
| 2026-05-05 15:07 | 36.24587 | 33.78284 | 33943 ft | 405 kts | 350° |
| 2026-05-05 15:07 | 36.27434 | 33.78398 | 34012 ft | 417 kts | 5° |
| 2026-05-05 15:07 | 36.30257 | 33.79415 | 34128 ft | 429 kts | 17° |
| 2026-05-05 15:07 | 36.32875 | 33.81166 | 34244 ft | 440 kts | 27° |
| 2026-05-05 15:08 | 36.35423 | 33.83301 | 34362 ft | 442 kts | 27° |
| 2026-05-05 15:08 | 36.38011 | 33.85461 | 34519 ft | 443 kts | 27° |
| 2026-05-05 15:08 | 36.40572 | 33.87593 | 34634 ft | 444 kts | 27° |
| 2026-05-05 15:08 | 36.43102 | 33.89706 | 34783 ft | 445 kts | 28° |
| 2026-05-05 15:09 | 36.45665 | 33.91857 | 34932 ft | 445 kts | 28° |
| 2026-05-05 15:09 | 36.50785 | 33.96175 | 34970 ft | 446 kts | 28° |
| 2026-05-05 15:10 | 36.55941 | 34.00530 | 34960 ft | 448 kts | 28° |
| 2026-05-05 15:10 | 36.61097 | 34.04887 | 34966 ft | 448 kts | 28° |
| 2026-05-05 15:11 | 36.66246 | 34.09258 | 34972 ft | 448 kts | 28° |
| 2026-05-05 15:11 | 36.71396 | 34.13643 | 34995 ft | 448 kts | 28° |
| 2026-05-05 15:12 | 36.76534 | 34.18019 | 34998 ft | 447 kts | 28° |
| 2026-05-05 15:12 | 36.81668 | 34.22385 | 34996 ft | 446 kts | 28° |
| 2026-05-05 15:13 | 36.86800 | 34.26754 | 35004 ft | 446 kts | 29° |
| 2026-05-05 15:13 | 36.91921 | 34.31132 | 34999 ft | 446 kts | 29° |
| 2026-05-05 15:14 | 36.97033 | 34.35515 | 34982 ft | 445 kts | 29° |
| 2026-05-05 15:14 | 37.02140 | 34.39901 | 34995 ft | 445 kts | 30° |
| 2026-05-05 15:15 | 37.07239 | 34.44287 | 34986 ft | 445 kts | 29° |
| 2026-05-05 15:15 | 37.12292 | 34.48629 | 35005 ft | 445 kts | 30° |
| 2026-05-05 15:16 | 37.17417 | 34.53040 | 35001 ft | 445 kts | 30° |
| 2026-05-05 15:16 | 37.22525 | 34.57444 | 34999 ft | 446 kts | 30° |
| 2026-05-05 15:17 | 37.27636 | 34.61865 | 34995 ft | 447 kts | 30° |
| 2026-05-05 15:17 | 37.32758 | 34.66304 | 34990 ft | 447 kts | 30° |
| 2026-05-05 15:18 | 37.37879 | 34.70755 | 34987 ft | 447 kts | 30° |
| 2026-05-05 15:18 | 37.42996 | 34.75213 | 34988 ft | 447 kts | 31° |
| 2026-05-05 15:19 | 37.48120 | 34.79671 | 34998 ft | 448 kts | 31° |
| 2026-05-05 15:19 | 37.53253 | 34.84129 | 34985 ft | 448 kts | 31° |
| 2026-05-05 15:20 | 37.58380 | 34.88607 | 34983 ft | 448 kts | 31° |
| 2026-05-05 15:20 | 37.63498 | 34.93092 | 35002 ft | 448 kts | 31° |
| 2026-05-05 15:21 | 37.68569 | 34.97550 | 34999 ft | 448 kts | 31° |
| 2026-05-05 15:21 | 37.73681 | 35.02043 | 35001 ft | 448 kts | 31° |
| 2026-05-05 15:22 | 37.78803 | 35.06546 | 34995 ft | 449 kts | 32° |
| 2026-05-05 15:22 | 37.83933 | 35.11058 | 34991 ft | 449 kts | 32° |
| 2026-05-05 15:23 | 37.89055 | 35.15587 | 34978 ft | 449 kts | 32° |
| 2026-05-05 15:23 | 37.94182 | 35.20117 | 34986 ft | 449 kts | 32° |
| 2026-05-05 15:24 | 37.99308 | 35.24655 | 34983 ft | 449 kts | 32° |
| 2026-05-05 15:24 | 38.04435 | 35.29204 | 34978 ft | 450 kts | 32° |
| 2026-05-05 15:25 | 38.09568 | 35.33777 | 34965 ft | 451 kts | 32° |
| 2026-05-05 15:25 | 38.14702 | 35.38347 | 34952 ft | 452 kts | 32° |
| 2026-05-05 15:26 | 38.19859 | 35.42942 | 34962 ft | 452 kts | 32° |
| 2026-05-05 15:26 | 38.23299 | 35.46009 | 34958 ft | 452 kts | 33° |